createdAt,value
2019-01-30T00:00:57.970Z,59.80
2019-01-30T00:03:29.859Z,60.10
2019-01-30T00:06:00.468Z,60.60
2019-01-30T00:08:30.996Z,61.90
2019-01-30T00:11:01.634Z,61.60
2019-01-30T00:13:32.279Z,61.70
2019-01-30T00:16:03.923Z,61.20
2019-01-30T00:18:34.300Z,61.30
2019-01-30T00:21:04.769Z,61.80
2019-01-30T00:23:38.467Z,61.40
2019-01-30T00:26:10.639Z,62.10
2019-01-30T00:28:41.535Z,62.30
2019-01-30T00:31:12.454Z,62.00
2019-01-30T00:33:49.694Z,62.30
2019-01-30T00:36:20.091Z,63.30
2019-01-30T00:38:50.491Z,63.60
2019-01-30T00:41:20.846Z,61.70
2019-01-30T00:43:51.515Z,61.30
2019-01-30T00:46:22.651Z,60.30
2019-01-30T00:48:53.188Z,59.50
2019-01-30T00:51:23.783Z,58.60
2019-01-30T00:53:56.015Z,58.60
2019-01-30T00:56:26.417Z,58.00
2019-01-30T00:58:56.975Z,57.80
2019-01-30T01:01:27.908Z,57.70
2019-01-30T01:03:58.583Z,58.00
2019-01-30T01:06:31.595Z,58.30
2019-01-30T01:09:07.567Z,58.40
2019-01-30T01:11:37.811Z,58.90
2019-01-30T01:14:08.869Z,59.10
2019-01-30T01:16:39.584Z,59.10
2019-01-30T01:19:10.087Z,59.60
2019-01-30T01:21:40.519Z,60.40
2019-01-30T01:24:11.138Z,61.30
2019-01-30T01:26:41.870Z,61.60
2019-01-30T01:29:13.300Z,62.00
2019-01-30T01:31:43.780Z,62.80
2019-01-30T01:34:17.286Z,62.30
2019-01-30T01:36:47.883Z,62.30
2019-01-30T01:39:18.510Z,61.90
2019-01-30T01:41:49.747Z,62.00
2019-01-30T01:44:20.274Z,61.80
2019-01-30T01:46:50.757Z,61.80
2019-01-30T01:49:21.183Z,61.00
2019-01-30T01:51:54.055Z,60.60
2019-01-30T01:54:25.689Z,60.70
2019-01-30T01:56:56.143Z,59.50
2019-01-30T01:59:28.348Z,61.00
2019-01-30T02:02:01.505Z,61.20
2019-01-30T02:04:31.478Z,61.10
2019-01-30T02:07:02.498Z,61.10
2019-01-30T02:09:33.003Z,61.00
2019-01-30T02:12:04.240Z,60.50
2019-01-30T02:14:34.637Z,60.40
2019-01-30T02:17:04.950Z,59.80
2019-01-30T02:19:35.232Z,59.80
2019-01-30T02:22:05.598Z,60.00
2019-01-30T02:24:35.870Z,59.20
2019-01-30T02:27:27.832Z,58.20
2019-01-30T02:30:19.252Z,59.20
2019-01-30T02:33:08.967Z,59.30
2019-01-30T02:35:58.168Z,59.60
2019-01-30T02:38:47.859Z,59.90
2019-01-30T02:41:18.034Z,58.70
2019-01-30T02:44:07.742Z,59.80
2019-01-30T02:46:40.930Z,59.90
2019-01-30T02:49:11.053Z,60.00
2019-01-30T02:51:41.007Z,59.20
2019-01-30T02:54:30.411Z,59.10
2019-01-30T02:57:00.573Z,58.80
2019-01-30T02:59:30.462Z,58.00
2019-01-30T03:02:19.888Z,58.20
2019-01-30T03:04:50.072Z,58.40
2019-01-30T03:07:39.559Z,58.10
2019-01-30T03:10:29.665Z,58.70
2019-01-30T03:13:19.146Z,57.90
2019-01-30T03:16:08.693Z,58.70
2019-01-30T03:18:38.653Z,59.00
2019-01-30T03:21:08.627Z,59.40
2019-01-30T03:23:38.792Z,59.00
2019-01-30T03:26:28.282Z,57.90
2019-01-30T03:29:17.920Z,58.10
2019-01-30T03:31:48.093Z,57.90
2019-01-30T03:34:37.647Z,58.40
2019-01-30T03:37:27.052Z,58.30
2019-01-30T03:40:17.335Z,57.10
2019-01-30T03:43:06.861Z,56.60
2019-01-30T03:45:36.965Z,56.60
2019-01-30T03:48:06.976Z,56.00
2019-01-30T03:50:36.972Z,56.10
2019-01-30T03:53:07.158Z,55.90
2019-01-30T03:55:37.217Z,55.70
2019-01-30T03:58:26.623Z,55.50
2019-01-30T04:01:26.301Z,56.00
2019-01-30T04:03:47.733Z,56.10
2019-01-30T04:06:18.156Z,56.60
2019-01-30T04:09:07.959Z,56.60
2019-01-30T04:11:57.549Z,56.60
2019-01-30T04:14:46.947Z,56.20
2019-01-30T04:17:36.443Z,56.60
2019-01-30T04:20:25.929Z,56.60
2019-01-30T04:23:03.493Z,56.60
2019-01-30T04:25:53.034Z,56.70
2019-01-30T04:28:42.434Z,56.70
2019-01-30T04:31:38.347Z,55.20
2019-01-30T04:34:42.315Z,56.50
2019-01-30T04:37:12.338Z,56.60
2019-01-30T04:40:01.700Z,56.20
2019-01-30T04:42:31.635Z,56.60
2019-01-30T04:45:01.489Z,56.60
2019-01-30T04:47:51.299Z,56.60
2019-01-30T04:50:40.907Z,56.60
2019-01-30T04:53:10.971Z,56.60
2019-01-30T04:56:00.353Z,56.20
2019-01-30T04:58:50.000Z,55.50
2019-01-30T05:01:49.549Z,55.30
2019-01-30T05:04:52.295Z,55.40
2019-01-30T05:07:42.132Z,55.50
2019-01-30T05:10:31.697Z,56.10
2019-01-30T05:13:01.721Z,56.20
2019-01-30T05:15:31.652Z,56.00
2019-01-30T05:18:21.333Z,56.60
2019-01-30T05:20:52.176Z,55.30
2019-01-30T05:23:36.276Z,55.80
2019-01-30T05:26:06.521Z,56.10
2019-01-30T05:28:37.543Z,56.00
2019-01-30T05:31:27.528Z,56.30
2019-01-30T05:34:17.579Z,56.00
2019-01-30T05:37:07.666Z,56.00
2019-01-30T05:39:39.468Z,56.50
2019-01-30T05:42:09.623Z,56.20
2019-01-30T05:44:40.385Z,56.60
2019-01-30T05:47:10.573Z,56.60
2019-01-30T05:49:40.474Z,56.70
2019-01-30T05:52:30.096Z,56.80
2019-01-30T05:55:19.486Z,56.90
2019-01-30T05:58:09.330Z,56.90
2019-01-30T06:00:44.055Z,56.90
2019-01-30T06:03:14.464Z,56.20
2019-01-30T06:05:44.676Z,56.30
2019-01-30T06:08:14.761Z,54.90
2019-01-30T06:10:44.723Z,53.90
2019-01-30T06:13:14.991Z,54.60
2019-01-30T06:15:44.878Z,55.30
2019-01-30T06:18:34.333Z,54.80
2019-01-30T06:21:04.333Z,53.90
2019-01-30T06:23:34.489Z,54.70
2019-01-30T06:26:25.165Z,54.30
2019-01-30T06:31:50.436Z,54.70
2019-01-30T06:43:32.644Z,54.50
2019-01-30T06:46:06.312Z,54.20
2019-01-30T06:48:38.789Z,54.40
2019-01-30T06:51:28.736Z,55.00
2019-01-30T06:53:58.798Z,54.00
2019-01-30T06:56:49.087Z,54.80
2019-01-30T06:59:38.757Z,55.00
2019-01-30T07:02:32.433Z,54.90
2019-01-30T07:08:05.149Z,52.70
2019-01-30T07:10:35.504Z,54.00
2019-01-30T07:13:05.534Z,53.40
2019-01-30T07:15:55.325Z,53.40
2019-01-30T07:18:45.164Z,52.70
2019-01-30T07:21:36.832Z,53.70
2019-01-30T07:24:20.707Z,54.20
2019-01-30T07:30:12.494Z,54.30
2019-01-30T07:32:50.814Z,54.00
2019-01-30T07:35:40.440Z,53.50
2019-01-30T07:38:10.349Z,54.00
2019-01-30T07:41:00.407Z,53.80
2019-01-30T07:46:19.185Z,54.10
2019-01-30T07:48:49.894Z,54.70
2019-01-30T07:54:41.761Z,55.20
2019-01-30T07:57:12.198Z,55.50
2019-01-30T07:59:42.678Z,55.60
2019-01-30T08:02:16.224Z,55.70
2019-01-30T08:05:16.553Z,55.40
2019-01-30T08:08:08.629Z,55.20
2019-01-30T08:14:22.179Z,53.30
2019-01-30T08:16:52.688Z,52.50
2019-01-30T08:25:16.345Z,50.20
2019-01-30T08:27:47.299Z,50.00
2019-01-30T08:30:24.250Z,49.60
2019-01-30T08:33:04.213Z,49.60
2019-01-30T08:35:28.394Z,49.70
2019-01-30T08:37:58.328Z,49.70
2019-01-30T08:40:29.743Z,49.60
2019-01-30T08:42:59.821Z,49.80
2019-01-30T08:45:31.139Z,49.20
2019-01-30T08:48:01.449Z,49.90
2019-01-30T08:50:31.605Z,49.80
2019-01-30T08:53:01.681Z,49.20
2019-01-30T08:55:31.778Z,48.90
2019-01-30T08:58:01.766Z,49.30
2019-01-30T09:00:32.872Z,49.90
2019-01-30T09:03:14.578Z,49.90
2019-01-30T09:05:38.165Z,49.80
2019-01-30T09:08:08.878Z,50.00
2019-01-30T09:10:39.324Z,50.00
2019-01-30T09:13:09.529Z,49.50
2019-01-30T09:15:39.888Z,49.60
2019-01-30T09:18:12.011Z,49.70
2019-01-30T09:20:51.185Z,49.30
2019-01-30T09:23:23.415Z,49.90
2019-01-30T09:25:56.863Z,49.90
2019-01-30T09:28:27.039Z,49.80
2019-01-30T09:30:57.071Z,49.90
2019-01-30T09:33:27.259Z,49.90
2019-01-30T09:35:57.739Z,50.00
2019-01-30T09:38:27.780Z,50.30
2019-01-30T09:40:58.124Z,50.00
2019-01-30T09:43:30.621Z,50.50
2019-01-30T09:46:00.488Z,50.30
2019-01-30T09:48:30.474Z,50.50
2019-01-30T09:51:00.456Z,50.00
2019-01-30T09:53:30.482Z,50.50
2019-01-30T09:56:00.630Z,50.60
2019-01-30T09:58:30.682Z,50.60
2019-01-30T10:01:00.750Z,50.60
2019-01-30T10:03:36.347Z,50.60
2019-01-30T10:06:02.736Z,51.00
2019-01-30T10:08:32.656Z,50.90
2019-01-30T10:11:03.264Z,51.00
2019-01-30T10:13:33.285Z,50.80
2019-01-30T10:16:03.584Z,51.60
2019-01-30T10:18:33.715Z,51.20
2019-01-30T10:21:03.973Z,51.30
2019-01-30T10:23:34.290Z,51.20
2019-01-30T10:26:04.399Z,50.80
2019-01-30T10:28:34.219Z,50.90
2019-01-30T10:31:04.295Z,50.90
2019-01-30T10:33:34.503Z,50.60
2019-01-30T10:36:05.162Z,50.80
2019-01-30T10:38:35.115Z,50.30
2019-01-30T10:41:05.136Z,50.50
2019-01-30T10:43:35.082Z,50.00
2019-01-30T10:46:05.151Z,49.10
2019-01-30T10:48:36.544Z,49.30
2019-01-30T10:51:07.393Z,48.80
2019-01-30T10:53:37.760Z,49.00
2019-01-30T10:56:07.618Z,48.30
2019-01-30T10:58:37.578Z,48.90
2019-01-30T11:01:07.491Z,48.90
2019-01-30T11:03:37.636Z,48.80
2019-01-30T11:06:07.652Z,49.10
2019-01-30T11:08:37.667Z,49.00
2019-01-30T11:11:08.401Z,49.00
2019-01-30T11:13:38.353Z,49.00
2019-01-30T11:16:08.342Z,49.60
2019-01-30T11:18:38.472Z,49.60
2019-01-30T11:21:08.583Z,48.90
2019-01-30T11:23:38.550Z,49.50
2019-01-30T11:26:08.555Z,49.80
2019-01-30T11:28:38.471Z,49.20
2019-01-30T11:31:08.538Z,48.70
2019-01-30T11:33:38.689Z,49.30
2019-01-30T11:36:08.629Z,48.90
2019-01-30T11:38:38.467Z,49.20
2019-01-30T11:41:08.312Z,49.10
2019-01-30T11:43:38.249Z,48.20
2019-01-30T11:46:08.320Z,48.00
2019-01-30T11:48:38.325Z,47.80
2019-01-30T11:51:08.219Z,47.90
2019-01-30T11:53:38.221Z,47.20
2019-01-30T11:56:08.275Z,47.00
2019-01-30T11:58:38.098Z,47.10
2019-01-30T12:01:08.110Z,47.20
2019-01-30T12:03:37.978Z,47.20
2019-01-30T12:06:07.889Z,47.10
2019-01-30T12:08:37.820Z,47.60
2019-01-30T12:11:07.731Z,47.60
2019-01-30T12:13:37.738Z,47.80
2019-01-30T12:16:07.576Z,47.80
2019-01-30T12:18:37.815Z,47.60
2019-01-30T12:21:07.775Z,47.90
2019-01-30T12:23:37.718Z,47.70
2019-01-30T12:26:07.806Z,48.00
2019-01-30T12:28:38.039Z,47.70
2019-01-30T12:31:08.100Z,48.00
2019-01-30T12:33:38.467Z,48.20
2019-01-30T12:36:08.574Z,48.00
2019-01-30T12:38:38.457Z,48.50
2019-01-30T12:41:08.685Z,48.80
2019-01-30T12:43:38.724Z,49.00
2019-01-30T12:46:08.711Z,49.20
2019-01-30T12:48:38.995Z,49.20
2019-01-30T12:51:09.166Z,49.50
2019-01-30T12:53:39.152Z,49.00
2019-01-30T12:56:09.335Z,49.10
2019-01-30T12:58:39.320Z,49.50
2019-01-30T13:01:09.512Z,49.80
2019-01-30T13:03:39.495Z,49.80
2019-01-30T13:06:09.494Z,49.80
2019-01-30T13:08:39.569Z,50.40
2019-01-30T13:11:09.609Z,51.10
2019-01-30T13:13:39.744Z,51.00
2019-01-30T13:16:10.074Z,51.00
2019-01-30T13:18:40.126Z,51.20
2019-01-30T13:21:10.114Z,51.10
2019-01-30T13:23:45.107Z,51.50
2019-01-30T13:26:15.069Z,51.90
2019-01-30T13:28:45.477Z,52.30
2019-01-30T13:31:15.699Z,52.80
2019-01-30T13:33:45.612Z,53.20
2019-01-30T13:36:15.533Z,53.80
2019-01-30T13:38:45.546Z,54.80
2019-01-30T13:41:15.432Z,55.10
2019-01-30T13:43:45.359Z,54.80
2019-01-30T13:46:15.485Z,54.80
2019-01-30T13:48:45.614Z,54.70
2019-01-30T13:51:15.522Z,54.50
2019-01-30T13:53:45.588Z,53.90
2019-01-30T13:56:15.468Z,53.90
2019-01-30T13:58:45.673Z,54.70
2019-01-30T14:01:17.602Z,53.80
2019-01-30T14:03:48.048Z,52.60
2019-01-30T14:06:18.053Z,52.70
2019-01-30T14:08:48.234Z,53.00
2019-01-30T14:11:18.648Z,53.00
2019-01-30T14:13:48.766Z,53.70
2019-01-30T14:16:18.677Z,54.00
2019-01-30T14:18:48.723Z,54.60
2019-01-30T14:21:19.021Z,55.60
2019-01-30T14:23:49.498Z,55.20
2019-01-30T14:26:19.588Z,56.30
2019-01-30T14:28:52.530Z,55.90
2019-01-30T14:32:01.705Z,56.50
2019-01-30T14:35:10.070Z,57.80
2019-01-30T14:38:37.793Z,59.40
2019-01-30T14:41:07.330Z,60.20
2019-01-30T14:43:57.628Z,61.80
2019-01-30T14:46:49.159Z,62.50
2019-01-30T14:49:39.711Z,62.50
2019-01-30T14:52:30.164Z,63.30
2019-01-30T14:57:53.337Z,65.20
2019-01-30T15:00:46.638Z,66.90
2019-01-30T15:03:18.767Z,68.10
2019-01-30T15:06:09.020Z,70.50
2019-01-30T15:08:41.081Z,72.00
2019-01-30T15:11:12.259Z,74.60
2019-01-30T15:14:02.355Z,75.20
2019-01-30T15:16:52.578Z,77.90
2019-01-30T15:19:42.923Z,80.10
2019-01-30T15:22:32.921Z,79.60
2019-01-30T15:25:16.212Z,80.20
2019-01-30T15:28:05.287Z,80.20
2019-01-30T15:30:56.478Z,80.00
2019-01-30T15:33:27.374Z,80.30
2019-01-30T15:35:58.682Z,80.80
2019-01-30T15:38:48.557Z,79.60
2019-01-30T15:41:18.902Z,80.70
2019-01-30T15:43:49.320Z,79.90
2019-01-30T15:46:33.753Z,80.00
2019-01-30T15:49:23.272Z,79.90
2019-01-30T15:51:53.724Z,79.30
2019-01-30T15:54:23.941Z,80.30
2019-01-30T15:56:54.070Z,79.30
2019-01-30T16:02:18.808Z,79.00
2019-01-30T16:04:49.223Z,79.80
2019-01-30T16:07:19.526Z,79.10
2019-01-30T16:10:10.647Z,79.90
2019-01-30T16:12:47.583Z,80.00
2019-01-30T16:15:31.545Z,81.00
2019-01-30T16:18:22.670Z,81.10
2019-01-30T16:21:04.087Z,79.10
2019-01-30T16:23:55.107Z,79.60
2019-01-30T16:26:25.989Z,80.20
2019-01-30T16:28:56.777Z,79.70
2019-01-30T16:34:29.896Z,79.30
2019-01-30T16:37:00.830Z,78.30
2019-01-30T16:42:54.448Z,79.20
2019-01-30T16:49:04.399Z,77.90
2019-01-30T16:54:57.117Z,75.70
2019-01-30T16:57:28.259Z,74.90
2019-01-30T17:03:15.322Z,74.40
2019-01-30T17:05:46.703Z,73.40
2019-01-30T17:08:22.688Z,73.20
2019-01-30T17:10:57.268Z,72.30
2019-01-30T17:13:58.950Z,72.90
2019-01-30T17:16:32.544Z,73.00
2019-01-30T17:19:08.342Z,73.20
2019-01-30T17:22:00.344Z,72.50
2019-01-30T17:24:32.438Z,75.00
2019-01-30T17:27:02.597Z,73.60
2019-01-30T17:32:28.348Z,72.00
2019-01-30T17:35:01.090Z,72.00
2019-01-30T17:37:31.569Z,72.40
2019-01-30T17:43:04.493Z,73.70
2019-01-30T17:48:14.267Z,76.30
2019-01-30T17:50:44.609Z,76.30
2019-01-30T17:53:14.994Z,77.20
2019-01-30T17:55:49.997Z,75.50
2019-01-30T18:03:51.845Z,74.90
2019-01-30T18:43:15.323Z,65.10
2019-01-30T18:45:47.147Z,65.30
2019-01-30T18:48:40.071Z,65.10
2019-01-30T18:51:31.422Z,64.20
2019-01-30T19:05:38.656Z,64.90
2019-01-30T19:14:34.943Z,66.30
2019-01-30T19:17:55.132Z,66.40
2019-01-30T19:20:49.399Z,66.60
2019-01-30T19:23:19.931Z,66.50
2019-01-30T19:25:50.390Z,66.80
2019-01-30T19:28:39.874Z,66.80
2019-01-30T19:31:10.107Z,66.90
2019-01-30T19:33:40.344Z,67.50
2019-01-30T19:36:10.393Z,67.00
2019-01-30T19:39:00.009Z,67.20
2019-01-30T19:41:30.081Z,67.10
2019-01-30T19:44:00.430Z,68.10
2019-01-30T19:46:50.797Z,66.50
2019-01-30T19:49:40.650Z,68.00
2019-01-30T19:52:11.382Z,68.40
2019-01-30T19:54:43.805Z,68.10
2019-01-30T19:57:35.494Z,66.70
2019-01-30T20:00:28.107Z,66.50
2019-01-30T20:03:22.832Z,65.80
2019-01-30T20:05:53.011Z,65.30
2019-01-30T20:08:42.538Z,63.50
2019-01-30T20:11:32.407Z,61.60
2019-01-30T20:14:22.251Z,61.80
2019-01-30T20:17:12.281Z,60.60
2019-01-30T20:20:02.364Z,60.90
2019-01-30T20:22:33.015Z,61.30
2019-01-30T20:25:17.768Z,60.30
2019-01-30T20:27:48.195Z,61.70
2019-01-30T20:30:38.221Z,61.90
2019-01-30T20:33:28.525Z,60.60
2019-01-30T20:39:06.807Z,60.60
2019-01-30T20:41:57.237Z,60.00
2019-01-30T20:44:27.374Z,60.10
2019-01-30T20:47:19.089Z,60.40
2019-01-30T20:49:50.690Z,60.90
2019-01-30T20:52:40.761Z,60.80
2019-01-30T20:55:33.268Z,60.70
2019-01-30T20:58:03.794Z,60.60
2019-01-30T21:00:53.784Z,60.00
2019-01-30T21:03:47.275Z,59.90
2019-01-30T21:06:17.869Z,59.80
2019-01-30T21:08:48.060Z,60.40
2019-01-30T21:11:38.458Z,61.20
2019-01-30T21:14:09.223Z,61.30
2019-01-30T21:16:59.439Z,62.30
2019-01-30T21:22:40.983Z,62.10
2019-01-30T21:25:24.942Z,62.80
2019-01-30T21:27:55.640Z,62.50
2019-01-30T21:30:45.227Z,63.60
2019-01-30T21:33:35.338Z,63.80
2019-01-30T21:36:24.896Z,63.40
2019-01-30T21:39:14.884Z,64.00
2019-01-30T21:41:46.768Z,64.20
2019-01-30T21:44:36.370Z,64.70
2019-01-30T21:47:06.567Z,64.90
2019-01-30T21:52:34.132Z,65.70
2019-01-30T21:55:26.250Z,66.30
2019-01-30T21:57:56.859Z,66.30
2019-01-30T22:00:45.344Z,67.20
2019-01-30T22:03:15.599Z,66.60
2019-01-30T22:06:05.619Z,66.30
2019-01-30T22:08:36.016Z,66.80
2019-01-30T22:11:06.361Z,67.60
2019-01-30T22:13:36.476Z,67.00
2019-01-30T22:16:26.088Z,66.70
2019-01-30T22:19:15.600Z,66.60
2019-01-30T22:22:05.184Z,66.60
2019-01-30T22:24:35.716Z,66.90
2019-01-30T22:27:25.137Z,66.00
2019-01-30T22:29:55.314Z,65.20
2019-01-30T22:32:25.444Z,66.20
2019-01-30T22:34:55.900Z,65.60
2019-01-30T22:37:25.961Z,65.90
2019-01-30T22:40:17.556Z,65.90
2019-01-30T22:43:07.146Z,65.10
2019-01-30T22:45:57.895Z,65.00
2019-01-30T22:48:52.472Z,66.20
2019-01-30T22:51:42.004Z,66.50
2019-01-30T22:54:31.780Z,66.40
2019-01-30T22:57:03.127Z,67.50
2019-01-30T22:59:33.470Z,67.80
2019-01-30T23:02:23.382Z,67.50
2019-01-30T23:05:45.956Z,67.90
2019-01-30T23:08:57.650Z,68.50
2019-01-30T23:12:13.814Z,68.90
2019-01-30T23:15:10.321Z,69.40
2019-01-30T23:18:38.726Z,69.60
2019-01-30T23:25:36.962Z,70.20
2019-01-30T23:28:28.036Z,70.10
2019-01-30T23:31:40.588Z,70.50
2019-01-30T23:41:30.717Z,71.60
2019-01-30T23:44:48.233Z,71.10
2019-01-30T23:48:16.607Z,71.20
2019-01-30T23:51:50.949Z,71.20
2019-01-30T23:55:21.490Z,70.20
2019-01-30T23:58:49.946Z,70.70
